sensor_id;sensor_type;location;lat;lon;timestamp;P1;durP1;ratioP1;P2;durP2;ratioP2
68216;SDS011;55037;52.354;4.992;2023-05-08T00:02:12;29.70;;;18.92;;
68216;SDS011;55037;52.354;4.992;2023-05-08T00:04:39;26.35;;;16.40;;
68216;SDS011;55037;52.354;4.992;2023-05-08T00:07:07;24.40;;;15.80;;
68216;SDS011;55037;52.354;4.992;2023-05-08T00:09:34;31.25;;;16.65;;
68216;SDS011;55037;52.354;4.992;2023-05-08T00:12:02;28.38;;;16.45;;
68216;SDS011;55037;52.354;4.992;2023-05-08T00:14:29;23.73;;;14.10;;
68216;SDS011;55037;52.354;4.992;2023-05-08T00:16:56;22.35;;;13.68;;
68216;SDS011;55037;52.354;4.992;2023-05-08T00:19:24;22.33;;;14.30;;
68216;SDS011;55037;52.354;4.992;2023-05-08T00:21:51;24.42;;;15.85;;
68216;SDS011;55037;52.354;4.992;2023-05-08T00:24:18;23.77;;;14.43;;
68216;SDS011;55037;52.354;4.992;2023-05-08T00:26:46;27.15;;;16.30;;
68216;SDS011;55037;52.354;4.992;2023-05-08T00:29:13;26.90;;;15.80;;
68216;SDS011;55037;52.354;4.992;2023-05-08T00:31:40;27.60;;;17.42;;
68216;SDS011;55037;52.354;4.992;2023-05-08T00:34:08;25.67;;;17.35;;
68216;SDS011;55037;52.354;4.992;2023-05-08T00:36:35;29.42;;;19.08;;
68216;SDS011;55037;52.354;4.992;2023-05-08T00:39:02;31.23;;;19.38;;
68216;SDS011;55037;52.354;4.992;2023-05-08T00:41:29;30.42;;;17.77;;
68216;SDS011;55037;52.354;4.992;2023-05-08T00:43:57;27.88;;;17.90;;
68216;SDS011;55037;52.354;4.992;2023-05-08T00:46:24;28.20;;;17.83;;
68216;SDS011;55037;52.354;4.992;2023-05-08T00:48:52;26.27;;;16.52;;
68216;SDS011;55037;52.354;4.992;2023-05-08T00:51:19;29.33;;;18.20;;
68216;SDS011;55037;52.354;4.992;2023-05-08T00:53:47;28.08;;;16.70;;
68216;SDS011;55037;52.354;4.992;2023-05-08T00:56:15;31.60;;;19.50;;
68216;SDS011;55037;52.354;4.992;2023-05-08T00:58:44;25.80;;;16.27;;
68216;SDS011;55037;52.354;4.992;2023-05-08T01:01:12;34.55;;;20.67;;
68216;SDS011;55037;52.354;4.992;2023-05-08T01:03:41;33.67;;;20.02;;
68216;SDS011;55037;52.354;4.992;2023-05-08T01:06:09;36.28;;;20.55;;
68216;SDS011;55037;52.354;4.992;2023-05-08T01:08:36;33.25;;;18.70;;
68216;SDS011;55037;52.354;4.992;2023-05-08T01:16:29;42.53;;;23.05;;
68216;SDS011;55037;52.354;4.992;2023-05-08T01:25:23;32.85;;;18.27;;
68216;SDS011;55037;52.354;4.992;2023-05-08T01:39:21;39.88;;;20.67;;
68216;SDS011;55037;52.354;4.992;2023-05-08T01:42:04;44.47;;;21.08;;
68216;SDS011;55037;52.354;4.992;2023-05-08T01:44:37;38.95;;;21.45;;
68216;SDS011;55037;52.354;4.992;2023-05-08T01:47:14;39.20;;;21.35;;
68216;SDS011;55037;52.354;4.992;2023-05-08T01:49:49;42.27;;;22.73;;
68216;SDS011;55037;52.354;4.992;2023-05-08T01:52:28;40.30;;;19.58;;
68216;SDS011;55037;52.354;4.992;2023-05-08T01:55:03;44.35;;;23.02;;
68216;SDS011;55037;52.354;4.992;2023-05-08T01:57:36;50.90;;;24.45;;
68216;SDS011;55037;52.354;4.992;2023-05-08T02:00:06;46.30;;;23.52;;
68216;SDS011;55037;52.354;4.992;2023-05-08T02:02:38;48.55;;;24.10;;
68216;SDS011;55037;52.354;4.992;2023-05-08T02:05:06;43.65;;;22.83;;
68216;SDS011;55037;52.354;4.992;2023-05-08T02:07:34;49.45;;;24.00;;
68216;SDS011;55037;52.354;4.992;2023-05-08T02:10:04;48.55;;;22.45;;
68216;SDS011;55037;52.354;4.992;2023-05-08T02:12:32;46.28;;;23.75;;
68216;SDS011;55037;52.354;4.992;2023-05-08T02:15:02;49.83;;;23.50;;
68216;SDS011;55037;52.354;4.992;2023-05-08T02:17:32;39.20;;;20.10;;
68216;SDS011;55037;52.354;4.992;2023-05-08T02:20:02;55.83;;;24.77;;
68216;SDS011;55037;52.354;4.992;2023-05-08T02:22:31;49.35;;;22.88;;
68216;SDS011;55037;52.354;4.992;2023-05-08T02:24:58;42.55;;;21.83;;
68216;SDS011;55037;52.354;4.992;2023-05-08T02:27:27;57.63;;;24.90;;
68216;SDS011;55037;52.354;4.992;2023-05-08T02:29:55;55.92;;;24.27;;
68216;SDS011;55037;52.354;4.992;2023-05-08T02:32:24;52.00;;;23.15;;
68216;SDS011;55037;52.354;4.992;2023-05-08T02:34:53;59.13;;;25.80;;
68216;SDS011;55037;52.354;4.992;2023-05-08T02:37:29;54.38;;;20.40;;
68216;SDS011;55037;52.354;4.992;2023-05-08T02:39:57;76.70;;;24.70;;
68216;SDS011;55037;52.354;4.992;2023-05-08T02:42:25;61.90;;;23.48;;
68216;SDS011;55037;52.354;4.992;2023-05-08T02:44:52;76.22;;;26.67;;
68216;SDS011;55037;52.354;4.992;2023-05-08T02:47:21;81.93;;;25.90;;
68216;SDS011;55037;52.354;4.992;2023-05-08T02:50:02;73.45;;;22.83;;
68216;SDS011;55037;52.354;4.992;2023-05-08T02:52:59;76.03;;;26.83;;
68216;SDS011;55037;52.354;4.992;2023-05-08T02:55:45;56.13;;;21.50;;
68216;SDS011;55037;52.354;4.992;2023-05-08T02:58:21;64.72;;;23.38;;
68216;SDS011;55037;52.354;4.992;2023-05-08T03:01:12;69.60;;;22.80;;
68216;SDS011;55037;52.354;4.992;2023-05-08T03:03:48;56.92;;;19.15;;
68216;SDS011;55037;52.354;4.992;2023-05-08T03:06:24;60.38;;;23.20;;
68216;SDS011;55037;52.354;4.992;2023-05-08T03:08:54;49.70;;;22.40;;
68216;SDS011;55037;52.354;4.992;2023-05-08T03:11:27;62.85;;;22.73;;
68216;SDS011;55037;52.354;4.992;2023-05-08T03:14:02;67.05;;;23.63;;
68216;SDS011;55037;52.354;4.992;2023-05-08T03:16:35;76.63;;;25.08;;
68216;SDS011;55037;52.354;4.992;2023-05-08T03:19:27;67.10;;;24.97;;
68216;SDS011;55037;52.354;4.992;2023-05-08T03:21:55;76.13;;;25.15;;
68216;SDS011;55037;52.354;4.992;2023-05-08T03:24:24;55.03;;;22.67;;
68216;SDS011;55037;52.354;4.992;2023-05-08T03:26:55;63.42;;;22.42;;
68216;SDS011;55037;52.354;4.992;2023-05-08T03:29:24;96.80;;;26.58;;
68216;SDS011;55037;52.354;4.992;2023-05-08T03:31:55;413.87;;;30.70;;
68216;SDS011;55037;52.354;4.992;2023-05-08T03:34:23;206.25;;;27.40;;
68216;SDS011;55037;52.354;4.992;2023-05-08T03:36:51;598.53;;;31.58;;
68216;SDS011;55037;52.354;4.992;2023-05-08T03:39:19;541.30;;;30.40;;
68216;SDS011;55037;52.354;4.992;2023-05-08T03:41:46;548.83;;;33.47;;
68216;SDS011;55037;52.354;4.992;2023-05-08T03:44:15;243.23;;;26.30;;
68216;SDS011;55037;52.354;4.992;2023-05-08T03:46:44;91.70;;;25.88;;
68216;SDS011;55037;52.354;4.992;2023-05-08T03:49:16;87.22;;;23.20;;
68216;SDS011;55037;52.354;4.992;2023-05-08T03:51:44;76.47;;;22.23;;
68216;SDS011;55037;52.354;4.992;2023-05-08T03:54:13;73.65;;;22.17;;
68216;SDS011;55037;52.354;4.992;2023-05-08T03:56:40;53.50;;;18.27;;
68216;SDS011;55037;52.354;4.992;2023-05-08T03:59:21;69.45;;;18.83;;
68216;SDS011;55037;52.354;4.992;2023-05-08T04:01:59;71.10;;;21.77;;
68216;SDS011;55037;52.354;4.992;2023-05-08T04:04:52;62.35;;;20.88;;
68216;SDS011;55037;52.354;4.992;2023-05-08T04:07:35;103.55;;;22.30;;
68216;SDS011;55037;52.354;4.992;2023-05-08T04:12:39;95.45;;;22.85;;
68216;SDS011;55037;52.354;4.992;2023-05-08T04:15:16;215.27;;;29.27;;
68216;SDS011;55037;52.354;4.992;2023-05-08T04:17:48;259.10;;;28.42;;
68216;SDS011;55037;52.354;4.992;2023-05-08T04:20:19;344.27;;;28.95;;
68216;SDS011;55037;52.354;4.992;2023-05-08T04:22:50;214.57;;;28.38;;
68216;SDS011;55037;52.354;4.992;2023-05-08T04:25:21;149.23;;;24.90;;
68216;SDS011;55037;52.354;4.992;2023-05-08T04:27:49;148.48;;;27.58;;
68216;SDS011;55037;52.354;4.992;2023-05-08T04:30:18;324.38;;;29.63;;
68216;SDS011;55037;52.354;4.992;2023-05-08T04:32:46;262.33;;;27.17;;
68216;SDS011;55037;52.354;4.992;2023-05-08T04:35:15;421.73;;;30.13;;
68216;SDS011;55037;52.354;4.992;2023-05-08T04:37:44;430.00;;;29.10;;
68216;SDS011;55037;52.354;4.992;2023-05-08T04:40:12;418.05;;;33.85;;
68216;SDS011;55037;52.354;4.992;2023-05-08T04:42:41;311.95;;;32.15;;
68216;SDS011;55037;52.354;4.992;2023-05-08T04:45:09;497.33;;;38.60;;
68216;SDS011;55037;52.354;4.992;2023-05-08T04:47:37;336.90;;;36.85;;
68216;SDS011;55037;52.354;4.992;2023-05-08T04:50:04;371.35;;;35.28;;
68216;SDS011;55037;52.354;4.992;2023-05-08T04:52:33;364.90;;;33.83;;
68216;SDS011;55037;52.354;4.992;2023-05-08T04:55:01;338.48;;;32.28;;
68216;SDS011;55037;52.354;4.992;2023-05-08T04:57:32;289.75;;;35.17;;
68216;SDS011;55037;52.354;4.992;2023-05-08T04:59:59;146.15;;;29.98;;
68216;SDS011;55037;52.354;4.992;2023-05-08T05:02:29;373.90;;;35.47;;
68216;SDS011;55037;52.354;4.992;2023-05-08T05:04:56;527.83;;;36.95;;
68216;SDS011;55037;52.354;4.992;2023-05-08T05:07:24;323.15;;;30.75;;
68216;SDS011;55037;52.354;4.992;2023-05-08T05:09:52;401.77;;;31.27;;
68216;SDS011;55037;52.354;4.992;2023-05-08T05:12:19;359.80;;;29.17;;
68216;SDS011;55037;52.354;4.992;2023-05-08T05:14:47;355.17;;;33.08;;
68216;SDS011;55037;52.354;4.992;2023-05-08T05:17:14;224.35;;;31.42;;
68216;SDS011;55037;52.354;4.992;2023-05-08T05:19:41;280.05;;;32.28;;
68216;SDS011;55037;52.354;4.992;2023-05-08T05:22:09;255.10;;;33.45;;
68216;SDS011;55037;52.354;4.992;2023-05-08T05:24:36;351.83;;;31.50;;
68216;SDS011;55037;52.354;4.992;2023-05-08T05:27:05;413.27;;;40.95;;
68216;SDS011;55037;52.354;4.992;2023-05-08T05:29:32;226.75;;;31.52;;
68216;SDS011;55037;52.354;4.992;2023-05-08T05:32:00;348.13;;;36.55;;
68216;SDS011;55037;52.354;4.992;2023-05-08T05:34:27;332.95;;;33.78;;
68216;SDS011;55037;52.354;4.992;2023-05-08T05:36:55;247.43;;;32.33;;
68216;SDS011;55037;52.354;4.992;2023-05-08T05:39:22;334.73;;;34.65;;
68216;SDS011;55037;52.354;4.992;2023-05-08T05:41:49;284.63;;;32.05;;
68216;SDS011;55037;52.354;4.992;2023-05-08T05:44:17;257.63;;;27.60;;
68216;SDS011;55037;52.354;4.992;2023-05-08T05:46:45;239.73;;;25.80;;
68216;SDS011;55037;52.354;4.992;2023-05-08T05:49:12;261.23;;;31.20;;
68216;SDS011;55037;52.354;4.992;2023-05-08T05:51:39;197.90;;;26.90;;
68216;SDS011;55037;52.354;4.992;2023-05-08T05:54:07;181.98;;;31.70;;
68216;SDS011;55037;52.354;4.992;2023-05-08T05:56:35;173.35;;;30.02;;
68216;SDS011;55037;52.354;4.992;2023-05-08T05:59:03;257.50;;;33.03;;
68216;SDS011;55037;52.354;4.992;2023-05-08T06:01:31;168.40;;;29.45;;
68216;SDS011;55037;52.354;4.992;2023-05-08T06:03:58;137.55;;;30.42;;
68216;SDS011;55037;52.354;4.992;2023-05-08T06:06:25;84.13;;;26.80;;
68216;SDS011;55037;52.354;4.992;2023-05-08T06:08:53;88.20;;;30.38;;
68216;SDS011;55037;52.354;4.992;2023-05-08T06:11:22;80.30;;;29.83;;
68216;SDS011;55037;52.354;4.992;2023-05-08T06:13:49;98.70;;;31.38;;
68216;SDS011;55037;52.354;4.992;2023-05-08T06:16:18;87.82;;;30.65;;
68216;SDS011;55037;52.354;4.992;2023-05-08T06:18:49;71.22;;;27.98;;
68216;SDS011;55037;52.354;4.992;2023-05-08T06:21:17;88.78;;;28.88;;
68216;SDS011;55037;52.354;4.992;2023-05-08T06:23:44;80.10;;;28.75;;
68216;SDS011;55037;52.354;4.992;2023-05-08T06:26:11;67.95;;;27.95;;
68216;SDS011;55037;52.354;4.992;2023-05-08T06:28:39;78.32;;;29.05;;
68216;SDS011;55037;52.354;4.992;2023-05-08T06:31:06;86.00;;;30.10;;
68216;SDS011;55037;52.354;4.992;2023-05-08T06:33:33;74.63;;;29.75;;
68216;SDS011;55037;52.354;4.992;2023-05-08T06:36:00;75.80;;;28.85;;
68216;SDS011;55037;52.354;4.992;2023-05-08T06:38:29;66.65;;;28.17;;
68216;SDS011;55037;52.354;4.992;2023-05-08T06:40:56;68.70;;;27.75;;
68216;SDS011;55037;52.354;4.992;2023-05-08T06:43:23;75.15;;;29.80;;
68216;SDS011;55037;52.354;4.992;2023-05-08T06:45:51;66.88;;;30.65;;
68216;SDS011;55037;52.354;4.992;2023-05-08T06:48:18;63.28;;;28.05;;
68216;SDS011;55037;52.354;4.992;2023-05-08T06:50:46;56.42;;;25.27;;
68216;SDS011;55037;52.354;4.992;2023-05-08T06:53:13;61.45;;;26.85;;
68216;SDS011;55037;52.354;4.992;2023-05-08T06:55:41;60.08;;;28.73;;
68216;SDS011;55037;52.354;4.992;2023-05-08T06:58:09;67.65;;;30.80;;
68216;SDS011;55037;52.354;4.992;2023-05-08T07:00:36;63.00;;;30.33;;
68216;SDS011;55037;52.354;4.992;2023-05-08T07:03:03;62.08;;;29.20;;
68216;SDS011;55037;52.354;4.992;2023-05-08T07:05:31;62.20;;;29.20;;
68216;SDS011;55037;52.354;4.992;2023-05-08T07:07:58;63.25;;;31.00;;
68216;SDS011;55037;52.354;4.992;2023-05-08T07:10:25;60.40;;;30.05;;
68216;SDS011;55037;52.354;4.992;2023-05-08T07:12:52;58.55;;;26.98;;
68216;SDS011;55037;52.354;4.992;2023-05-08T07:15:20;61.35;;;30.00;;
68216;SDS011;55037;52.354;4.992;2023-05-08T07:17:52;62.28;;;27.60;;
68216;SDS011;55037;52.354;4.992;2023-05-08T07:20:20;65.57;;;31.45;;
68216;SDS011;55037;52.354;4.992;2023-05-08T07:22:47;56.75;;;26.10;;
68216;SDS011;55037;52.354;4.992;2023-05-08T07:25:15;62.08;;;29.40;;
68216;SDS011;55037;52.354;4.992;2023-05-08T07:27:42;66.20;;;32.00;;
68216;SDS011;55037;52.354;4.992;2023-05-08T07:30:09;66.55;;;32.65;;
68216;SDS011;55037;52.354;4.992;2023-05-08T07:32:37;63.42;;;31.88;;
68216;SDS011;55037;52.354;4.992;2023-05-08T07:35:05;67.25;;;32.50;;
68216;SDS011;55037;52.354;4.992;2023-05-08T07:37:37;59.67;;;30.23;;
68216;SDS011;55037;52.354;4.992;2023-05-08T07:40:05;67.40;;;34.03;;
68216;SDS011;55037;52.354;4.992;2023-05-08T07:42:39;62.00;;;32.05;;
68216;SDS011;55037;52.354;4.992;2023-05-08T07:45:08;58.65;;;30.23;;
68216;SDS011;55037;52.354;4.992;2023-05-08T07:47:38;61.30;;;32.17;;
68216;SDS011;55037;52.354;4.992;2023-05-08T07:50:13;61.28;;;32.33;;
68216;SDS011;55037;52.354;4.992;2023-05-08T07:52:43;56.42;;;29.73;;
68216;SDS011;55037;52.354;4.992;2023-05-08T07:55:12;60.58;;;34.40;;
68216;SDS011;55037;52.354;4.992;2023-05-08T07:57:41;63.55;;;31.55;;
68216;SDS011;55037;52.354;4.992;2023-05-08T08:00:10;56.53;;;29.33;;
68216;SDS011;55037;52.354;4.992;2023-05-08T08:02:42;61.05;;;34.17;;
68216;SDS011;55037;52.354;4.992;2023-05-08T08:05:10;58.67;;;32.28;;
68216;SDS011;55037;52.354;4.992;2023-05-08T08:07:38;54.50;;;32.20;;
68216;SDS011;55037;52.354;4.992;2023-05-08T08:10:06;55.63;;;32.05;;
68216;SDS011;55037;52.354;4.992;2023-05-08T08:12:34;52.00;;;30.42;;
68216;SDS011;55037;52.354;4.992;2023-05-08T08:15:01;58.58;;;31.92;;
68216;SDS011;55037;52.354;4.992;2023-05-08T08:17:29;53.47;;;31.02;;
68216;SDS011;55037;52.354;4.992;2023-05-08T08:19:56;54.45;;;31.35;;
68216;SDS011;55037;52.354;4.992;2023-05-08T08:22:24;54.40;;;30.10;;
68216;SDS011;55037;52.354;4.992;2023-05-08T08:24:53;57.97;;;32.90;;
68216;SDS011;55037;52.354;4.992;2023-05-08T08:27:21;52.63;;;32.55;;
68216;SDS011;55037;52.354;4.992;2023-05-08T08:29:49;57.67;;;32.67;;
68216;SDS011;55037;52.354;4.992;2023-05-08T08:32:24;54.90;;;30.65;;
68216;SDS011;55037;52.354;4.992;2023-05-08T08:34:51;56.28;;;32.25;;
68216;SDS011;55037;52.354;4.992;2023-05-08T08:37:19;60.60;;;34.00;;
68216;SDS011;55037;52.354;4.992;2023-05-08T08:39:46;54.72;;;32.45;;
68216;SDS011;55037;52.354;4.992;2023-05-08T08:42:14;56.70;;;32.03;;
68216;SDS011;55037;52.354;4.992;2023-05-08T08:44:41;59.63;;;35.55;;
68216;SDS011;55037;52.354;4.992;2023-05-08T08:47:09;57.83;;;32.28;;
68216;SDS011;55037;52.354;4.992;2023-05-08T08:49:41;64.10;;;34.95;;
68216;SDS011;55037;52.354;4.992;2023-05-08T08:52:18;63.60;;;32.78;;
68216;SDS011;55037;52.354;4.992;2023-05-08T08:54:56;62.58;;;33.97;;
68216;SDS011;55037;52.354;4.992;2023-05-08T08:57:30;61.50;;;31.98;;
68216;SDS011;55037;52.354;4.992;2023-05-08T09:00:02;65.90;;;31.35;;
68216;SDS011;55037;52.354;4.992;2023-05-08T09:02:32;68.90;;;35.17;;
68216;SDS011;55037;52.354;4.992;2023-05-08T09:05:01;67.10;;;35.05;;
68216;SDS011;55037;52.354;4.992;2023-05-08T09:07:29;70.97;;;37.63;;
68216;SDS011;55037;52.354;4.992;2023-05-08T09:09:56;70.60;;;37.58;;
68216;SDS011;55037;52.354;4.992;2023-05-08T09:12:25;69.90;;;35.90;;
68216;SDS011;55037;52.354;4.992;2023-05-08T09:14:52;84.57;;;42.45;;
68216;SDS011;55037;52.354;4.992;2023-05-08T09:17:20;81.43;;;41.15;;
68216;SDS011;55037;52.354;4.992;2023-05-08T09:19:48;84.45;;;44.10;;
68216;SDS011;55037;52.354;4.992;2023-05-08T09:22:15;81.43;;;42.22;;
68216;SDS011;55037;52.354;4.992;2023-05-08T09:27:21;81.30;;;41.95;;
68216;SDS011;55037;52.354;4.992;2023-05-08T09:30:00;73.20;;;38.47;;
68216;SDS011;55037;52.354;4.992;2023-05-08T09:32:30;84.97;;;45.65;;
68216;SDS011;55037;52.354;4.992;2023-05-08T09:34:58;93.85;;;46.58;;
68216;SDS011;55037;52.354;4.992;2023-05-08T09:37:27;93.18;;;47.95;;
68216;SDS011;55037;52.354;4.992;2023-05-08T09:40:11;98.38;;;47.63;;
68216;SDS011;55037;52.354;4.992;2023-05-08T09:42:48;93.97;;;46.15;;
68216;SDS011;55037;52.354;4.992;2023-05-08T09:45:26;100.13;;;49.95;;
68216;SDS011;55037;52.354;4.992;2023-05-08T09:47:58;103.32;;;51.13;;
68216;SDS011;55037;52.354;4.992;2023-05-08T09:50:25;96.50;;;47.65;;
68216;SDS011;55037;52.354;4.992;2023-05-08T09:52:53;99.82;;;48.67;;
68216;SDS011;55037;52.354;4.992;2023-05-08T09:55:20;97.82;;;48.40;;
68216;SDS011;55037;52.354;4.992;2023-05-08T09:57:54;87.95;;;44.03;;
68216;SDS011;55037;52.354;4.992;2023-05-08T10:00:24;91.28;;;44.38;;
68216;SDS011;55037;52.354;4.992;2023-05-08T10:02:54;88.53;;;44.03;;
68216;SDS011;55037;52.354;4.992;2023-05-08T10:05:24;82.43;;;42.22;;
68216;SDS011;55037;52.354;4.992;2023-05-08T10:08:17;89.80;;;45.72;;
68216;SDS011;55037;52.354;4.992;2023-05-08T10:10:51;95.85;;;45.53;;
68216;SDS011;55037;52.354;4.992;2023-05-08T10:13:19;88.10;;;44.80;;
68216;SDS011;55037;52.354;4.992;2023-05-08T10:15:46;88.65;;;44.88;;
68216;SDS011;55037;52.354;4.992;2023-05-08T10:18:20;90.25;;;43.85;;
68216;SDS011;55037;52.354;4.992;2023-05-08T10:20:51;89.57;;;46.67;;
68216;SDS011;55037;52.354;4.992;2023-05-08T10:23:21;87.30;;;43.63;;
68216;SDS011;55037;52.354;4.992;2023-05-08T10:25:51;72.93;;;38.92;;
68216;SDS011;55037;52.354;4.992;2023-05-08T10:28:22;76.63;;;39.22;;
68216;SDS011;55037;52.354;4.992;2023-05-08T10:31:13;77.63;;;40.50;;
68216;SDS011;55037;52.354;4.992;2023-05-08T10:33:44;71.97;;;38.25;;
68216;SDS011;55037;52.354;4.992;2023-05-08T10:36:12;70.05;;;39.33;;
68216;SDS011;55037;52.354;4.992;2023-05-08T10:38:40;68.13;;;37.47;;
68216;SDS011;55037;52.354;4.992;2023-05-08T10:41:12;72.82;;;39.80;;
68216;SDS011;55037;52.354;4.992;2023-05-08T10:43:43;67.57;;;37.30;;
68216;SDS011;55037;52.354;4.992;2023-05-08T10:46:14;69.22;;;38.15;;
68216;SDS011;55037;52.354;4.992;2023-05-08T10:52:16;61.10;;;34.63;;
68216;SDS011;55037;52.354;4.992;2023-05-08T10:57:27;64.07;;;38.33;;
68216;SDS011;55037;52.354;4.992;2023-05-08T10:59:56;60.55;;;37.00;;
68216;SDS011;55037;52.354;4.992;2023-05-08T11:02:27;61.40;;;37.10;;
68216;SDS011;55037;52.354;4.992;2023-05-08T11:05:15;61.47;;;35.37;;
68216;SDS011;55037;52.354;4.992;2023-05-08T11:07:53;64.30;;;34.55;;
68216;SDS011;55037;52.354;4.992;2023-05-08T11:10:21;55.25;;;33.20;;
68216;SDS011;55037;52.354;4.992;2023-05-08T11:12:55;54.65;;;32.25;;
68216;SDS011;55037;52.354;4.992;2023-05-08T11:15:39;51.97;;;32.60;;
68216;SDS011;55037;52.354;4.992;2023-05-08T11:18:07;51.45;;;32.13;;
68216;SDS011;55037;52.354;4.992;2023-05-08T11:20:41;52.60;;;33.88;;
68216;SDS011;55037;52.354;4.992;2023-05-08T11:23:30;52.25;;;32.83;;
68216;SDS011;55037;52.354;4.992;2023-05-08T11:26:04;44.78;;;31.67;;
68216;SDS011;55037;52.354;4.992;2023-05-08T11:28:40;45.05;;;30.95;;
68216;SDS011;55037;52.354;4.992;2023-05-08T11:31:24;48.20;;;34.63;;
68216;SDS011;55037;52.354;4.992;2023-05-08T11:37:08;44.88;;;32.60;;
68216;SDS011;55037;52.354;4.992;2023-05-08T11:39:50;42.47;;;29.95;;
68216;SDS011;55037;52.354;4.992;2023-05-08T11:45:06;39.20;;;29.53;;
68216;SDS011;55037;52.354;4.992;2023-05-08T11:50:08;42.28;;;31.50;;
68216;SDS011;55037;52.354;4.992;2023-05-08T11:52:37;37.65;;;28.25;;
68216;SDS011;55037;52.354;4.992;2023-05-08T11:55:09;36.38;;;27.38;;
68216;SDS011;55037;52.354;4.992;2023-05-08T11:57:38;37.27;;;27.63;;
68216;SDS011;55037;52.354;4.992;2023-05-08T12:00:09;40.80;;;28.90;;
68216;SDS011;55037;52.354;4.992;2023-05-08T12:02:38;39.30;;;29.65;;
68216;SDS011;55037;52.354;4.992;2023-05-08T12:05:07;38.20;;;27.20;;
68216;SDS011;55037;52.354;4.992;2023-05-08T12:07:54;40.60;;;27.67;;
68216;SDS011;55037;52.354;4.992;2023-05-08T12:10:21;38.33;;;27.97;;
68216;SDS011;55037;52.354;4.992;2023-05-08T12:12:48;40.72;;;28.60;;
68216;SDS011;55037;52.354;4.992;2023-05-08T12:15:15;41.40;;;29.00;;
68216;SDS011;55037;52.354;4.992;2023-05-08T12:17:43;41.60;;;28.67;;
68216;SDS011;55037;52.354;4.992;2023-05-08T12:22:43;43.90;;;29.23;;
68216;SDS011;55037;52.354;4.992;2023-05-08T12:25:17;38.28;;;27.17;;
68216;SDS011;55037;52.354;4.992;2023-05-08T12:27:45;42.13;;;29.27;;
68216;SDS011;55037;52.354;4.992;2023-05-08T12:30:13;39.88;;;28.23;;
68216;SDS011;55037;52.354;4.992;2023-05-08T12:32:42;38.30;;;27.02;;
68216;SDS011;55037;52.354;4.992;2023-05-08T12:35:10;39.63;;;27.13;;
68216;SDS011;55037;52.354;4.992;2023-05-08T12:37:38;39.47;;;26.92;;
68216;SDS011;55037;52.354;4.992;2023-05-08T12:40:06;36.22;;;25.92;;
68216;SDS011;55037;52.354;4.992;2023-05-08T12:42:48;37.35;;;27.52;;
68216;SDS011;55037;52.354;4.992;2023-05-08T12:47:47;35.73;;;25.67;;
68216;SDS011;55037;52.354;4.992;2023-05-08T12:50:16;34.95;;;24.10;;
68216;SDS011;55037;52.354;4.992;2023-05-08T12:52:47;35.50;;;25.20;;
68216;SDS011;55037;52.354;4.992;2023-05-08T13:01:02;34.83;;;23.77;;
68216;SDS011;55037;52.354;4.992;2023-05-08T13:03:40;32.70;;;21.60;;
68216;SDS011;55037;52.354;4.992;2023-05-08T13:06:17;33.03;;;22.58;;
68216;SDS011;55037;52.354;4.992;2023-05-08T13:08:51;40.22;;;27.30;;
68216;SDS011;55037;52.354;4.992;2023-05-08T13:11:29;37.60;;;26.88;;
68216;SDS011;55037;52.354;4.992;2023-05-08T13:13:58;36.70;;;25.67;;
68216;SDS011;55037;52.354;4.992;2023-05-08T13:16:25;38.90;;;23.63;;
68216;SDS011;55037;52.354;4.992;2023-05-08T13:18:53;36.90;;;25.65;;
68216;SDS011;55037;52.354;4.992;2023-05-08T13:21:20;35.05;;;22.60;;
68216;SDS011;55037;52.354;4.992;2023-05-08T13:23:47;32.42;;;21.80;;
68216;SDS011;55037;52.354;4.992;2023-05-08T13:26:14;31.93;;;20.40;;
68216;SDS011;55037;52.354;4.992;2023-05-08T13:28:42;30.33;;;19.55;;
68216;SDS011;55037;52.354;4.992;2023-05-08T13:31:11;30.80;;;19.92;;
68216;SDS011;55037;52.354;4.992;2023-05-08T13:33:38;35.70;;;22.83;;
68216;SDS011;55037;52.354;4.992;2023-05-08T13:36:05;29.00;;;19.23;;
68216;SDS011;55037;52.354;4.992;2023-05-08T13:38:33;30.73;;;22.10;;
68216;SDS011;55037;52.354;4.992;2023-05-08T13:41:01;26.50;;;18.83;;
68216;SDS011;55037;52.354;4.992;2023-05-08T13:43:28;25.50;;;18.38;;
68216;SDS011;55037;52.354;4.992;2023-05-08T13:45:56;22.83;;;17.05;;
68216;SDS011;55037;52.354;4.992;2023-05-08T13:48:23;26.27;;;18.80;;
68216;SDS011;55037;52.354;4.992;2023-05-08T13:50:50;24.50;;;17.67;;
68216;SDS011;55037;52.354;4.992;2023-05-08T13:53:17;24.55;;;17.45;;
68216;SDS011;55037;52.354;4.992;2023-05-08T13:55:44;22.55;;;16.73;;
68216;SDS011;55037;52.354;4.992;2023-05-08T13:58:12;22.55;;;16.77;;
68216;SDS011;55037;52.354;4.992;2023-05-08T14:00:39;24.10;;;18.48;;
68216;SDS011;55037;52.354;4.992;2023-05-08T14:03:06;25.43;;;17.87;;
68216;SDS011;55037;52.354;4.992;2023-05-08T14:05:34;24.30;;;18.73;;
68216;SDS011;55037;52.354;4.992;2023-05-08T14:08:02;22.65;;;16.83;;
68216;SDS011;55037;52.354;4.992;2023-05-08T14:10:29;23.15;;;17.88;;
68216;SDS011;55037;52.354;4.992;2023-05-08T14:12:56;21.60;;;17.08;;
68216;SDS011;55037;52.354;4.992;2023-05-08T14:15:23;22.40;;;16.50;;
68216;SDS011;55037;52.354;4.992;2023-05-08T14:18:02;22.58;;;18.10;;
68216;SDS011;55037;52.354;4.992;2023-05-08T14:20:29;21.48;;;16.98;;
68216;SDS011;55037;52.354;4.992;2023-05-08T14:22:57;23.88;;;16.48;;
68216;SDS011;55037;52.354;4.992;2023-05-08T14:25:26;26.40;;;18.35;;
68216;SDS011;55037;52.354;4.992;2023-05-08T14:27:53;28.87;;;18.10;;
68216;SDS011;55037;52.354;4.992;2023-05-08T14:30:20;24.45;;;17.75;;
68216;SDS011;55037;52.354;4.992;2023-05-08T14:32:47;25.83;;;18.08;;
68216;SDS011;55037;52.354;4.992;2023-05-08T14:35:15;24.30;;;18.52;;
68216;SDS011;55037;52.354;4.992;2023-05-08T14:37:42;25.25;;;19.38;;
68216;SDS011;55037;52.354;4.992;2023-05-08T14:40:09;22.00;;;16.50;;
68216;SDS011;55037;52.354;4.992;2023-05-08T14:42:37;24.75;;;18.58;;
68216;SDS011;55037;52.354;4.992;2023-05-08T14:45:04;24.88;;;18.85;;
68216;SDS011;55037;52.354;4.992;2023-05-08T14:47:32;26.02;;;19.30;;
68216;SDS011;55037;52.354;4.992;2023-05-08T14:49:59;23.13;;;16.45;;
68216;SDS011;55037;52.354;4.992;2023-05-08T14:52:26;26.57;;;19.27;;
68216;SDS011;55037;52.354;4.992;2023-05-08T14:54:54;28.92;;;19.20;;
68216;SDS011;55037;52.354;4.992;2023-05-08T14:57:21;25.33;;;17.95;;
68216;SDS011;55037;52.354;4.992;2023-05-08T14:59:48;25.75;;;17.88;;
68216;SDS011;55037;52.354;4.992;2023-05-08T15:02:36;27.20;;;18.48;;
68216;SDS011;55037;52.354;4.992;2023-05-08T15:05:03;28.17;;;19.77;;
68216;SDS011;55037;52.354;4.992;2023-05-08T15:07:42;26.95;;;18.52;;
68216;SDS011;55037;52.354;4.992;2023-05-08T15:10:10;28.65;;;19.85;;
68216;SDS011;55037;52.354;4.992;2023-05-08T15:12:37;27.35;;;18.25;;
68216;SDS011;55037;52.354;4.992;2023-05-08T15:15:05;27.30;;;16.75;;
68216;SDS011;55037;52.354;4.992;2023-05-08T15:17:32;40.13;;;20.30;;
68216;SDS011;55037;52.354;4.992;2023-05-08T15:20:02;39.95;;;21.02;;
68216;SDS011;55037;52.354;4.992;2023-05-08T15:22:30;39.80;;;19.67;;
68216;SDS011;55037;52.354;4.992;2023-05-08T15:24:57;39.83;;;20.25;;
68216;SDS011;55037;52.354;4.992;2023-05-08T15:27:28;38.80;;;20.58;;
68216;SDS011;55037;52.354;4.992;2023-05-08T15:29:56;42.60;;;19.30;;